Terminal Aerodrome Forecast
Issued by NWS Louisville, KY

Home | Current Version | Previous Version | Text Only | Print | Product List | Glossary On
Versions: 1 2 3 4 5 6 7 8 9 10 11 12 13 14 15 16 17 18
000
FTUS43 KLMK 301100
TAFBWG
TAF
KBWG 301123Z 3012/3112 17005KT P6SM FEW100
     FM301500 19014G20KT P6SM VCSH SCT040 BKN100
     FM310000 20010KT 6SM -SHRA VCTS BKN040CB
     FM310700 23007KT P6SM VCSH BKN015=

USA.gov is the U.S. government's official web portal to all federal, state and local government web resources and services.